Accueil
METAR-TAF:

METAR-TAF

Aéroports :

Aéroport Harry Mwanga Nkumbula de Livingstone

Livingstone, Zambie

latitude: 17-49-18S, longitude: 025-49-22E, altitude: 991 m

METAR: absent

Heure: 15:23 (13:23 UTC)

Prévision

Le bulletin a été fait il y a 21 heures et 23 minutes, à 16:00 UTC
Prévision valable du 13 à 18 UTC au 14 à 24 UTC
Vent 5 kt de est
Visibilité 10 km ou plus
pas de nuages en-dessous de 1500 mètres et pas de cumulonimbus.
Evoluant progressivement
du 14 à 04 UTC au 14 à 06 UTC
Vent 5 kt de sud/sud-est
Evoluant progressivement
du 14 à 08 UTC au 14 à 12 UTC
Vent 10 kt de est

TAF: FLHN 131600Z 1318/1424 09005KT CAVOK BECMG 1404/1406 15005KT BECMG 1408/1412 09010KT

Observations et prévisions météorologiques de plus de 4000 aéroports (messages METAR et TAF).

Les stations disponibles sont représentées par des disques jaunes et rouges sur la carte.

Passer la souris dessus pour voir le nom de la station.

Cliquer dessus pour voir les observations et prévisions météorologiques.

Pour changer de carte: cliquez sur les boutons verts avec une croix noire pour zoomer, sur le bouton vert avec un tiret pour effectuer un zoom arrière, ou sur les flèches vertes pour les cartes adjacentes.


METAR-TAF: